Time;durP1;ratioP1;P1;durP2;ratioP2;P2;SDS_P1;SDS_P2;PMS_P1;PMS_P2;Temp;Humidity;BMP_temperature;BMP_pressure;BME280_temperature;BME280_humidity;BME280_pressure;Samples;Min_cycle;Max_cycle;Signal;HPM_P1;HPM_P2
2021/12/11 00:00:24;;;;;;;29.70;5.45;;;4.70;99.90;;;;;;5060632;28;19924;-75
2021/12/11 00:03:01;;;;;;;22.20;5.72;;;4.60;99.90;;;;;;5061375;28;20021;-73
2021/12/11 00:05:28;;;;;;;25.08;5.95;;;4.50;99.90;;;;;;5061321;28;20023;-72
2021/12/11 00:07:53;;;;;;;23.98;5.45;;;4.40;99.90;;;;;;5062585;28;20020;-73
2021/12/11 00:10:33;;;;;;;20.67;4.90;;;4.30;99.90;;;;;;5062419;28;20020;-74
2021/12/11 00:13:03;;;;;;;22.45;5.43;;;4.10;99.90;;;;;;5061337;28;20037;-74
2021/12/11 00:15:34;;;;;;;21.50;4.90;;;4.00;99.90;;;;;;5062966;28;20033;-73
2021/12/11 00:18:04;;;;;;;16.50;5.03;;;3.90;99.90;;;;;;5061534;28;20021;-74
2021/12/11 00:20:33;;;;;;;17.23;4.45;;;3.90;99.90;;;;;;5061422;28;20323;-74
2021/12/11 00:23:00;;;;;;;19.90;5.07;;;3.70;99.90;;;;;;5061519;28;20259;-75
2021/12/11 00:25:27;;;;;;;20.42;4.97;;;3.70;99.90;;;;;;5062255;28;20021;-74
2021/12/11 00:28:03;;;;;;;25.73;4.60;;;3.70;99.90;;;;;;5065187;28;20323;-74
2021/12/11 00:30:35;;;;;;;15.75;4.20;;;3.70;99.90;;;;;;5066218;28;20331;-73
2021/12/11 00:33:09;;;;;;;19.90;5.03;;;3.70;99.90;;;;;;5064778;28;20211;-72
2021/12/11 00:35:36;;;;;;;23.08;5.97;;;3.70;99.90;;;;;;5065184;28;20096;-73
2021/12/11 00:38:23;;;;;;;21.88;5.05;;;3.70;99.90;;;;;;5064906;28;20089;-72
2021/12/11 00:40:51;;;;;;;24.60;5.47;;;3.60;99.90;;;;;;5065131;28;20029;-72
2021/12/11 00:43:27;;;;;;;20.30;5.63;;;3.50;99.90;;;;;;5064248;28;20025;-74
2021/12/11 00:45:54;;;;;;;19.67;5.47;;;3.40;99.90;;;;;;5065914;28;20092;-72
2021/12/11 00:48:23;;;;;;;17.38;4.75;;;3.40;99.90;;;;;;5066271;28;20028;-71
2021/12/11 00:51:05;;;;;;;18.70;5.53;;;3.30;99.90;;;;;;5065202;28;20028;-71
2021/12/11 00:53:38;;;;;;;20.40;5.07;;;3.40;99.90;;;;;;5065105;28;20029;-72
2021/12/11 00:56:10;;;;;;;20.17;4.90;;;3.50;99.90;;;;;;5066328;28;20109;-74
2021/12/11 00:58:38;;;;;;;25.63;5.90;;;3.50;99.90;;;;;;5064655;28;20037;-73
2021/12/11 01:01:14;;;;;;;19.58;5.40;;;3.60;99.90;;;;;;5064512;28;20027;-73
2021/12/11 01:03:51;;;;;;;24.40;6.47;;;3.60;99.90;;;;;;5065484;28;20316;-72
2021/12/11 01:06:38;;;;;;;15.88;5.90;;;3.50;99.90;;;;;;5064655;28;20027;-73
2021/12/11 01:09:11;;;;;;;19.20;5.50;;;3.40;99.90;;;;;;5064860;28;20048;-72
2021/12/11 01:11:43;;;;;;;21.75;5.43;;;3.30;99.90;;;;;;5064321;28;20016;-71
2021/12/11 01:14:25;;;;;;;16.83;5.57;;;3.20;99.90;;;;;;5065016;28;20045;-74
2021/12/11 01:16:59;;;;;;;21.73;5.32;;;3.10;99.90;;;;;;5065918;28;20039;-72
2021/12/11 01:19:27;;;;;;;19.90;5.80;;;3.10;99.90;;;;;;5064122;28;20032;-72
2021/12/11 01:21:57;;;;;;;16.25;5.20;;;3.10;99.90;;;;;;5047851;28;20025;-73
2021/12/11 01:24:43;;;;;;;16.13;5.13;;;3.20;99.90;;;;;;5063923;28;20067;-72
2021/12/11 01:27:11;;;;;;;20.85;5.57;;;3.30;99.90;;;;;;5065587;28;20279;-72
2021/12/11 01:29:38;;;;;;;27.45;6.13;;;3.30;99.90;;;;;;5063583;28;20079;-72
2021/12/11 01:32:06;;;;;;;17.73;6.43;;;3.40;99.90;;;;;;5065056;28;20028;-72
2021/12/11 01:34:33;;;;;;;19.55;5.40;;;3.40;99.90;;;;;;5064954;28;20055;-73
2021/12/11 01:37:00;;;;;;;27.92;6.43;;;3.50;99.90;;;;;;5063680;28;20070;-72
2021/12/11 01:39:30;;;;;;;19.23;5.57;;;3.60;99.90;;;;;;5065056;28;20021;-73
2021/12/11 01:41:57;;;;;;;21.30;5.85;;;3.50;99.90;;;;;;5064810;28;20036;-72
2021/12/11 01:44:31;;;;;;;21.55;5.70;;;3.50;99.90;;;;;;5063563;28;20021;-71
2021/12/11 01:47:09;;;;;;;15.05;5.60;;;3.50;99.90;;;;;;5063708;28;20056;-72
2021/12/11 01:49:37;;;;;;;17.38;5.68;;;3.50;99.90;;;;;;5063553;28;20017;-72
2021/12/11 01:52:19;;;;;;;19.60;5.50;;;3.50;99.90;;;;;;5064657;28;20021;-72
2021/12/11 01:54:46;;;;;;;17.02;5.60;;;3.60;99.90;;;;;;5064447;28;20307;-72
2021/12/11 01:57:24;;;;;;;25.00;5.47;;;3.70;99.90;;;;;;5063868;28;20029;-75
2021/12/11 01:59:56;;;;;;;20.67;5.13;;;3.70;99.90;;;;;;5046892;28;20231;-72
2021/12/11 02:02:32;;;;;;;23.50;5.32;;;3.70;99.90;;;;;;5062935;28;20250;-74
2021/12/11 02:04:59;;;;;;;20.02;5.75;;;3.80;99.90;;;;;;5063592;28;20031;-72
2021/12/11 02:07:30;;;;;;;25.08;5.50;;;3.80;99.90;;;;;;5064720;28;20032;-71
2021/12/11 02:09:59;;;;;;;21.27;5.82;;;3.90;99.90;;;;;;5046851;28;20211;-73
2021/12/11 02:12:32;;;;;;;29.23;4.72;;;4.00;99.90;;;;;;5063078;28;20032;-73
2021/12/11 02:15:01;;;;;;;24.25;5.55;;;4.10;99.90;;;;;;5063289;28;20033;-72
2021/12/11 02:17:52;;;;;;;25.23;4.60;;;4.30;99.90;;;;;;5064546;28;20106;-72
2021/12/11 02:20:30;;;;;;;26.13;4.65;;;4.40;99.90;;;;;;5063479;28;20017;-73
2021/12/11 02:22:57;;;;;;;21.35;4.60;;;4.60;99.90;;;;;;5062918;28;20221;-73
2021/12/11 02:25:28;;;;;;;17.73;4.15;;;4.70;99.90;;;;;;5062985;28;20021;-73
2021/12/11 02:27:59;;;;;;;19.38;3.95;;;4.80;99.90;;;;;;5064537;28;20215;-72
2021/12/11 02:31:00;;;;;;;18.95;4.07;;;4.90;99.90;;;;;;5063073;28;20028;-74
2021/12/11 02:33:32;;;;;;;22.15;3.70;;;5.00;99.90;;;;;;5063059;28;20083;-73
2021/12/11 02:36:07;;;;;;;;;;;5.10;99.90;;;;;;5063220;28;20056;-72
2021/12/11 02:38:57;;;;;;;20.73;4.13;;;5.20;99.90;;;;;;5062539;28;19916;-74
2021/12/11 02:41:34;;;;;;;23.75;3.70;;;5.10;99.90;;;;;;5049201;28;20024;-74
2021/12/11 02:44:07;;;;;;;16.27;3.97;;;5.10;99.90;;;;;;5062726;28;20092;-72
2021/12/11 02:46:44;;;;;;;14.82;4.18;;;4.90;99.90;;;;;;5063843;28;20017;-74
2021/12/11 02:49:31;;;;;;;19.27;4.65;;;4.80;99.90;;;;;;5046595;28;20224;-73
2021/12/11 02:52:06;;;;;;;16.73;4.82;;;4.70;99.90;;;;;;5045793;28;20303;-74
2021/12/11 02:54:54;;;;;;;26.85;4.75;;;4.60;99.90;;;;;;5063657;28;20055;-73
2021/12/11 02:57:27;;;;;;;21.90;5.20;;;4.60;99.90;;;;;;5065720;28;20020;-73
2021/12/11 02:59:54;;;;;;;21.27;4.57;;;4.50;99.90;;;;;;5063503;28;20305;-73
2021/12/11 03:02:24;;;;;;;22.73;5.30;;;4.40;99.90;;;;;;5061227;28;20033;-74
2021/12/11 03:04:54;;;;;;;21.80;4.55;;;4.40;99.90;;;;;;5063752;28;20212;-72
2021/12/11 03:07:25;;;;;;;20.45;4.68;;;4.50;99.90;;;;;;5062450;28;20025;-73
2021/12/11 03:09:56;;;;;;;22.55;4.75;;;4.60;99.90;;;;;;5062694;28;20094;-72
2021/12/11 03:12:24;;;;;;;17.38;4.50;;;4.50;99.90;;;;;;5063413;28;20025;-73
2021/12/11 03:14:50;;;;;;;23.10;4.50;;;4.50;99.90;;;;;;5063616;28;20421;-75
2021/12/11 03:17:19;;;;;;;24.05;4.75;;;4.50;99.90;;;;;;5063519;28;20251;-73
2021/12/11 03:19:46;;;;;;;23.23;6.22;;;4.40;99.90;;;;;;5063530;28;20299;-75
2021/12/11 03:22:17;;;;;;;18.10;5.22;;;4.40;99.90;;;;;;5045451;28;20334;-74
2021/12/11 03:24:43;;;;;;;;;;;4.40;99.90;;;;;;5064066;28;20021;-74
2021/12/11 03:27:09;;;;;;;20.80;4.43;;;4.40;99.90;;;;;;5062075;28;20245;-73
2021/12/11 03:29:35;;;;;;;18.33;4.80;;;4.40;99.90;;;;;;5063405;28;20036;-73
2021/12/11 03:32:05;;;;;;;25.73;5.45;;;4.40;99.90;;;;;;5062941;28;20308;-73
2021/12/11 03:34:31;;;;;;;14.30;4.65;;;4.40;99.90;;;;;;5063527;28;20029;-72
2021/12/11 03:36:59;;;;;;;19.30;4.65;;;4.50;99.90;;;;;;5063128;28;20033;-72
2021/12/11 03:39:30;;;;;;;19.70;4.68;;;4.50;99.90;;;;;;5062063;28;20056;-72
2021/12/11 03:41:58;;;;;;;27.90;5.45;;;4.60;99.90;;;;;;5062779;28;20025;-74
2021/12/11 03:44:31;;;;;;;20.58;4.75;;;4.60;99.90;;;;;;5063394;28;20033;-73
2021/12/11 03:46:58;;;;;;;17.63;4.88;;;4.60;99.90;;;;;;5061919;28;20033;-73
2021/12/11 03:49:24;;;;;;;17.17;4.40;;;4.70;99.90;;;;;;5061817;28;20327;-73
2021/12/11 03:51:52;;;;;;;15.98;4.60;;;4.70;99.90;;;;;;5045274;28;20088;-73
2021/12/11 03:54:24;;;;;;;16.55;4.45;;;4.70;99.90;;;;;;5061994;28;20025;-73
2021/12/11 03:56:51;;;;;;;24.75;5.57;;;4.70;99.90;;;;;;5045793;28;20033;-73
2021/12/11 03:59:17;;;;;;;26.10;5.55;;;4.70;99.90;;;;;;5063181;28;20299;-73
2021/12/11 04:01:47;;;;;;;21.90;5.53;;;4.60;99.90;;;;;;5066929;28;20033;-73
2021/12/11 04:04:36;;;;;;;24.95;9.25;;;4.60;99.90;;;;;;5064685;28;20028;-71
2021/12/11 04:07:05;;;;;;;28.50;7.53;;;4.60;99.90;;;;;;5065739;28;20312;-73
2021/12/11 04:09:31;;;;;;;27.48;5.88;;;4.50;99.90;;;;;;5065955;28;20033;-73
2021/12/11 04:11:57;;;;;;;26.63;7.10;;;4.50;99.90;;;;;;5065173;28;20201;-73
2021/12/11 04:14:27;;;;;;;23.65;7.47;;;4.50;99.90;;;;;;5067372;28;20036;-74
2021/12/11 04:16:54;;;;;;;22.70;6.45;;;4.50;99.90;;;;;;5066596;28;20029;-73
2021/12/11 04:19:22;;;;;;;20.77;5.78;;;4.50;99.90;;;;;;5065632;28;20100;-73
2021/12/11 04:21:49;;;;;;;22.85;6.55;;;4.60;99.90;;;;;;5048896;28;20057;-73
2021/12/11 04:24:18;;;;;;;22.95;5.57;;;4.60;99.90;;;;;;5066387;28;20028;-72
2021/12/11 04:26:45;;;;;;;20.65;5.53;;;4.60;99.90;;;;;;5066462;28;20074;-72
2021/12/11 04:29:11;;;;;;;23.13;5.60;;;4.60;99.90;;;;;;5065615;28;20040;-73
2021/12/11 04:31:42;;;;;;;16.77;4.78;;;4.60;99.90;;;;;;5065399;28;20021;-73
2021/12/11 04:34:12;;;;;;;18.47;5.67;;;4.70;99.90;;;;;;5065170;28;20075;-73
2021/12/11 04:36:42;;;;;;;21.63;5.07;;;4.70;99.90;;;;;;5065374;28;20097;-73
2021/12/11 04:39:11;;;;;;;24.80;7.53;;;4.70;99.90;;;;;;5065933;28;20059;-73
2021/12/11 04:41:49;;;;;;;24.65;6.60;;;4.80;99.90;;;;;;5064896;28;20385;-72
2021/12/11 04:44:23;;;;;;;31.77;9.52;;;4.80;99.90;;;;;;5066467;28;20053;-72
2021/12/11 04:46:50;;;;;;;29.08;9.63;;;4.80;99.90;;;;;;5065896;28;20074;-74
2021/12/11 04:49:27;;;;;;;17.75;4.88;;;4.80;99.90;;;;;;5065449;28;20062;-73
2021/12/11 04:52:18;;;;;;;22.23;4.75;;;4.80;99.90;;;;;;5065834;28;20312;-72
2021/12/11 04:54:52;;;;;;;20.92;4.57;;;4.80;99.90;;;;;;5064781;28;20028;-73
2021/12/11 04:57:51;;;;;;;26.02;7.18;;;4.90;99.90;;;;;;5065913;28;20033;-73
2021/12/11 05:00:14;;;;;;;35.05;10.18;;;4.80;99.90;;;;;;5051119;28;20025;-73
2021/12/11 05:03:32;;;;;;;22.10;7.72;;;4.70;99.90;;;;;;5065498;28;20223;-72
2021/12/11 05:05:53;;;;;;;25.42;7.45;;;4.80;99.90;;;;;;5051459;28;20017;-74
2021/12/11 05:11:05;;;;;;;22.63;5.07;;;4.80;99.90;;;;;;5064167;28;20037;-72
2021/12/11 05:13:30;;;;;;;19.90;5.30;;;4.80;99.90;;;;;;5065169;28;20269;-74
2021/12/11 05:15:59;;;;;;;26.13;4.68;;;4.90;99.90;;;;;;5064835;28;20025;-73
2021/12/11 05:18:28;;;;;;;17.05;4.50;;;4.90;99.90;;;;;;5065542;28;20013;-73
2021/12/11 05:20:59;;;;;;;22.13;4.65;;;4.90;99.90;;;;;;5064578;28;20025;-73
2021/12/11 05:23:25;;;;;;;25.02;4.97;;;5.00;99.90;;;;;;5063766;28;20208;-72
2021/12/11 05:25:52;;;;;;;20.23;5.63;;;5.00;99.90;;;;;;5065529;28;20025;-72
2021/12/11 05:28:18;;;;;;;21.77;4.90;;;5.00;99.90;;;;;;5064408;28;20052;-73
2021/12/11 05:30:48;;;;;;;21.67;5.68;;;5.00;99.90;;;;;;5064390;28;20017;-74
2021/12/11 05:33:14;;;;;;;15.00;4.28;;;5.00;99.90;;;;;;5063848;28;20025;-73
2021/12/11 05:35:40;;;;;;;23.83;5.47;;;5.00;99.90;;;;;;5065389;28;20032;-73
2021/12/11 05:38:09;;;;;;;18.85;5.07;;;5.00;99.90;;;;;;5063991;28;20045;-72
2021/12/11 05:40:40;;;;;;;24.45;4.72;;;5.10;99.90;;;;;;5064096;28;20135;-72
2021/12/11 05:43:06;;;;;;;17.65;4.97;;;5.00;99.90;;;;;;5063903;28;20040;-72
2021/12/11 05:45:32;;;;;;;23.45;3.85;;;5.00;99.90;;;;;;5065202;28;20230;-74
2021/12/11 05:47:58;;;;;;;19.63;4.05;;;5.10;99.90;;;;;;5064943;28;20036;-73
2021/12/11 05:50:31;;;;;;;15.77;4.20;;;5.10;99.90;;;;;;5064154;28;20021;-72
2021/12/11 05:52:57;;;;;;;17.58;4.68;;;5.10;99.90;;;;;;5063676;28;20045;-73
2021/12/11 05:55:25;;;;;;;18.65;4.28;;;5.10;99.90;;;;;;5063960;28;20035;-73
2021/12/11 05:57:56;;;;;;;28.70;4.55;;;5.10;99.90;;;;;;5063687;28;20203;-73
2021/12/11 06:00:25;;;;;;;19.15;3.80;;;5.00;99.90;;;;;;5064893;28;20040;-72
2021/12/11 06:02:51;;;;;;;18.25;4.22;;;5.10;99.90;;;;;;5064611;28;20087;-73
2021/12/11 06:05:17;;;;;;;21.17;4.15;;;5.00;99.90;;;;;;5063398;28;20048;-72
2021/12/11 06:07:43;;;;;;;24.17;5.95;;;5.10;99.90;;;;;;5064982;28;20021;-72
2021/12/11 06:10:14;;;;;;;21.50;4.63;;;5.10;99.90;;;;;;5063152;28;20021;-73
2021/12/11 06:12:40;;;;;;;17.88;4.43;;;5.10;99.90;;;;;;5063150;28;20319;-73
2021/12/11 06:15:07;;;;;;;13.68;3.72;;;5.20;99.90;;;;;;5064608;28;20292;-73
2021/12/11 06:17:34;;;;;;;22.38;4.78;;;5.20;99.90;;;;;;5065033;28;20040;-74
2021/12/11 06:20:02;;;;;;;15.52;3.50;;;5.10;99.90;;;;;;5063988;28;20067;-73
2021/12/11 06:22:32;;;;;;;17.77;3.65;;;5.10;99.90;;;;;;5063818;28;20092;-73
2021/12/11 06:25:00;;;;;;;19.35;4.05;;;5.00;99.90;;;;;;5062701;28;20033;-73
2021/12/11 06:27:27;;;;;;;22.52;4.60;;;5.00;99.90;;;;;;5063189;28;20025;-73
2021/12/11 06:29:53;;;;;;;21.67;4.80;;;4.90;99.90;;;;;;5064028;28;20021;-72
2021/12/11 06:32:21;;;;;;;28.08;4.18;;;4.90;99.90;;;;;;5063135;28;20069;-73
2021/12/11 06:34:47;;;;;;;17.13;4.15;;;4.90;99.90;;;;;;5062668;28;20312;-73
2021/12/11 06:37:16;;;;;;;20.23;4.55;;;4.90;99.90;;;;;;5064157;28;20024;-72
2021/12/11 06:39:42;;;;;;;15.27;4.60;;;4.90;99.90;;;;;;5062800;28;20029;-72
2021/12/11 06:42:09;;;;;;;21.48;4.70;;;4.90;99.90;;;;;;5062665;28;20070;-74
2021/12/11 06:44:37;;;;;;;17.23;4.43;;;4.90;99.90;;;;;;5046375;28;20029;-73
2021/12/11 06:47:06;;;;;;;18.30;4.32;;;5.00;99.90;;;;;;5064233;28;20021;-73
2021/12/11 06:49:34;;;;;;;22.67;4.45;;;5.00;99.90;;;;;;5062443;28;20044;-73
2021/12/11 06:52:04;;;;;;;21.73;5.05;;;5.00;99.90;;;;;;5062768;28;20300;-73
2021/12/11 06:54:30;;;;;;;16.15;4.00;;;4.90;99.90;;;;;;5063533;28;20048;-74
2021/12/11 06:56:56;;;;;;;15.18;4.30;;;4.90;99.90;;;;;;5046176;28;20020;-72
2021/12/11 06:59:22;;;;;;;20.23;4.30;;;4.90;99.90;;;;;;5063338;28;20036;-73
2021/12/11 07:01:48;;;;;;;23.15;4.45;;;4.90;99.90;;;;;;5062646;28;20300;-73
2021/12/11 07:04:14;;;;;;;23.48;4.07;;;4.90;99.90;;;;;;5063278;28;20272;-74
2021/12/11 07:06:43;;;;;;;22.33;4.20;;;4.80;99.90;;;;;;5061841;28;20032;-72
2021/12/11 07:09:11;;;;;;;18.20;4.20;;;4.80;99.90;;;;;;5062215;28;20370;-72
2021/12/11 07:11:40;;;;;;;21.75;4.18;;;4.90;99.90;;;;;;5061980;28;20304;-73
2021/12/11 07:14:07;;;;;;;25.55;5.50;;;4.90;99.90;;;;;;5046039;28;20277;-72
2021/12/11 07:16:34;;;;;;;21.10;4.68;;;5.00;99.90;;;;;;5063716;28;20035;-73
2021/12/11 07:18:59;;;;;;;20.85;5.55;;;5.00;99.90;;;;;;5062389;28;20336;-73
2021/12/11 07:21:25;;;;;;;27.77;4.93;;;5.10;99.90;;;;;;5063218;28;20028;-73
2021/12/11 07:23:51;;;;;;;20.90;4.93;;;5.00;99.90;;;;;;5063023;28;20017;-73
2021/12/11 07:26:24;;;;;;;18.63;5.38;;;5.10;99.90;;;;;;5063397;28;20047;-72
2021/12/11 07:28:53;;;;;;;23.27;5.32;;;5.10;99.90;;;;;;5062276;28;20223;-73
2021/12/11 07:31:21;;;;;;;17.38;4.45;;;5.10;99.90;;;;;;5045569;28;20029;-72
2021/12/11 07:33:48;;;;;;;16.10;5.40;;;5.20;99.90;;;;;;5062977;28;20032;-72
2021/12/11 07:36:14;;;;;;;25.88;4.95;;;5.20;99.90;;;;;;5065761;28;20383;-73
2021/12/11 07:38:40;;;;;;;18.73;5.35;;;5.20;99.90;;;;;;5067513;28;20056;-73
2021/12/11 07:41:10;;;;;;;13.63;4.38;;;5.20;99.90;;;;;;5066143;28;20013;-73
2021/12/11 07:43:38;;;;;;;21.75;5.38;;;5.30;99.90;;;;;;5067243;28;20070;-73
2021/12/11 07:46:05;;;;;;;18.60;4.28;;;5.30;99.90;;;;;;5066104;28;20048;-72
2021/12/11 07:48:31;;;;;;;23.33;4.88;;;5.30;99.90;;;;;;5066590;28;20021;-73
2021/12/11 07:50:57;;;;;;;15.23;4.40;;;5.30;99.90;;;;;;5065801;28;20041;-73
2021/12/11 07:53:24;;;;;;;18.92;4.28;;;5.40;99.90;;;;;;5065562;28;20193;-73
2021/12/11 07:55:51;;;;;;;25.05;4.65;;;5.50;99.90;;;;;;5066021;28;20039;-73
2021/12/11 07:58:17;;;;;;;25.38;5.28;;;5.50;99.90;;;;;;5066288;28;20208;-73
2021/12/11 08:00:45;;;;;;;28.50;5.07;;;5.50;99.90;;;;;;5065257;28;20268;-74
2021/12/11 08:03:13;;;;;;;21.33;4.95;;;5.50;99.90;;;;;;5067166;28;20029;-72
2021/12/11 08:05:42;;;;;;;28.17;5.45;;;5.60;99.90;;;;;;5065822;28;20027;-73
2021/12/11 08:08:10;;;;;;;24.88;4.75;;;5.60;99.90;;;;;;5064258;28;20024;-73
2021/12/11 08:10:37;;;;;;;20.77;4.78;;;5.70;99.90;;;;;;5065478;28;20025;-73
2021/12/11 08:13:04;;;;;;;25.90;5.50;;;5.70;99.90;;;;;;5065422;28;20315;-73
2021/12/11 08:15:30;;;;;;;26.50;5.15;;;5.60;99.90;;;;;;5065757;28;20220;-72
2021/12/11 08:17:56;;;;;;;24.45;4.97;;;5.60;99.90;;;;;;5065967;28;20020;-73
2021/12/11 08:20:27;;;;;;;22.50;4.70;;;5.50;99.90;;;;;;5066515;28;20068;-73
2021/12/11 08:22:54;;;;;;;21.80;5.50;;;5.60;99.90;;;;;;5065123;28;20051;-74
2021/12/11 08:25:21;;;;;;;24.33;4.82;;;5.70;99.90;;;;;;5065275;28;20041;-73
2021/12/11 08:27:47;;;;;;;27.45;5.45;;;5.60;99.90;;;;;;5066730;28;20017;-72
2021/12/11 08:30:13;;;;;;;27.23;5.55;;;5.70;99.90;;;;;;5048649;28;20100;-72
2021/12/11 08:32:39;;;;;;;26.95;6.45;;;5.70;99.90;;;;;;5065064;28;20021;-72
2021/12/11 08:35:09;;;;;;;27.25;5.47;;;5.70;99.90;;;;;;5065166;28;20096;-74
2021/12/11 08:37:36;;;;;;;26.73;5.47;;;5.70;99.90;;;;;;5065159;28;20053;-74
2021/12/11 08:40:05;;;;;;;24.60;5.05;;;5.70;99.90;;;;;;5048537;28;20142;-73
2021/12/11 08:42:32;;;;;;;21.48;4.20;;;5.70;99.90;;;;;;5064928;28;20021;-73
2021/12/11 08:45:05;;;;;;;31.38;5.20;;;5.80;99.90;;;;;;5065307;28;20028;-74
2021/12/11 08:47:36;;;;;;;22.17;5.53;;;6.00;99.90;;;;;;5065084;28;20013;-73
2021/12/11 08:50:04;;;;;;;28.45;5.20;;;6.00;99.90;;;;;;5065095;28;20025;-72
2021/12/11 08:52:34;;;;;;;18.80;4.22;;;6.10;99.90;;;;;;5063870;28;20035;-72
2021/12/11 08:55:03;;;;;;;28.73;5.78;;;6.20;99.90;;;;;;5065151;28;20083;-72
2021/12/11 08:57:32;;;;;;;32.30;5.03;;;6.20;99.90;;;;;;5065922;28;20029;-72
2021/12/11 09:00:12;;;;;;;29.20;5.05;;;6.30;99.90;;;;;;5065012;28;20066;-72
2021/12/11 09:02:44;;;;;;;27.67;5.32;;;6.30;99.90;;;;;;5065595;28;20024;-73
2021/12/11 09:05:14;;;;;;;;;;;6.40;99.90;;;;;;5065513;28;20032;-73
2021/12/11 09:07:46;;;;;;;38.97;10.80;;;6.40;99.90;;;;;;5064140;28;19907;-72
2021/12/11 09:10:19;;;;;;;34.03;8.95;;;6.50;99.90;;;;;;5065632;28;20078;-73
2021/12/11 09:12:58;;;;;;;30.23;7.90;;;6.50;99.90;;;;;;5065332;28;20025;-73
2021/12/11 09:15:34;;;;;;;33.83;8.45;;;6.60;99.90;;;;;;5065806;28;20024;-73
2021/12/11 09:18:08;;;;;;;29.92;6.18;;;6.60;99.90;;;;;;5065466;28;20031;-74
2021/12/11 09:20:43;;;;;;;26.73;6.60;;;6.60;99.90;;;;;;5065413;28;20028;-72
2021/12/11 09:23:31;;;;;;;24.35;4.90;;;6.60;99.90;;;;;;5047092;28;20020;-71
2021/12/11 09:26:01;;;;;;;22.35;4.82;;;6.60;99.90;;;;;;5064423;28;20311;-72
2021/12/11 09:28:33;;;;;;;22.17;3.97;;;6.60;99.90;;;;;;5047965;28;20027;-74
2021/12/11 09:31:10;;;;;;;32.03;5.03;;;6.60;99.90;;;;;;5064538;28;20231;-73
2021/12/11 09:33:41;;;;;;;21.77;4.47;;;6.70;99.90;;;;;;5063470;28;20105;-73
2021/12/11 09:36:15;;;;;;;27.27;5.50;;;6.70;99.90;;;;;;5065459;28;20032;-74
2021/12/11 09:38:45;;;;;;;29.63;5.10;;;6.70;99.90;;;;;;5063938;28;20040;-72
2021/12/11 09:41:21;;;;;;;18.67;4.55;;;6.70;99.90;;;;;;5064248;28;20311;-73
2021/12/11 09:44:04;;;;;;;21.33;4.70;;;6.80;99.90;;;;;;5065058;28;20017;-73
2021/12/11 09:46:38;;;;;;;25.20;4.70;;;6.80;99.90;;;;;;5064414;28;20021;-73
2021/12/11 09:49:07;;;;;;;23.88;4.78;;;6.90;99.90;;;;;;5065355;28;20087;-74
2021/12/11 09:51:38;;;;;;;33.53;5.90;;;6.90;99.90;;;;;;5063822;28;20047;-74
2021/12/11 09:54:11;;;;;;;24.20;4.68;;;6.90;99.90;;;;;;5064376;28;20027;-74
2021/12/11 09:57:01;;;;;;;21.42;5.15;;;7.00;99.90;;;;;;5047302;28;20090;-74
2021/12/11 09:59:30;;;;;;;21.20;4.90;;;7.10;99.90;;;;;;5065258;28;20048;-73
2021/12/11 10:02:03;;;;;;;21.63;4.63;;;7.10;99.90;;;;;;5064807;28;20069;-71
2021/12/11 10:04:34;;;;;;;23.00;5.50;;;7.30;99.90;;;;;;5063989;28;20346;-74
2021/12/11 10:09:49;;;;;;;22.70;5.10;;;7.40;99.90;;;;;;5062351;28;20048;-72
2021/12/11 10:12:20;;;;;;;24.00;4.57;;;7.50;99.90;;;;;;5063024;28;20037;-73
2021/12/11 10:14:51;;;;;;;24.67;4.28;;;7.60;99.90;;;;;;5063779;28;20021;-71
2021/12/11 10:17:20;;;;;;;23.40;3.10;;;7.70;99.90;;;;;;5064543;28;20036;-73
2021/12/11 10:19:50;;;;;;;23.40;3.72;;;8.00;99.90;;;;;;5063182;28;20557;-73
2021/12/11 10:22:25;;;;;;;17.27;3.03;;;8.10;99.90;;;;;;5062879;28;20024;-72
2021/12/11 10:24:52;;;;;;;28.48;2.92;;;8.20;99.90;;;;;;5063378;28;20017;-73
2021/12/11 10:27:22;;;;;;;23.20;3.08;;;8.40;99.90;;;;;;5064475;28;20016;-73
2021/12/11 10:29:49;;;;;;;21.73;3.13;;;8.50;99.90;;;;;;5063323;28;20021;-73
2021/12/11 10:32:19;;;;;;;17.52;3.30;;;8.60;99.90;;;;;;5063947;28;20032;-73
2021/12/11 10:34:48;;;;;;;17.48;3.30;;;8.60;99.90;;;;;;5062712;28;20088;-73
2021/12/11 10:37:19;;;;;;;21.80;3.58;;;8.70;99.90;;;;;;5062883;28;20025;-74
2021/12/11 10:39:50;;;;;;;19.70;2.78;;;8.80;99.90;;;;;;5062607;28;20017;-75
2021/12/11 10:42:16;;;;;;;14.02;3.05;;;9.00;99.90;;;;;;5042894;28;20033;-73
2021/12/11 10:44:46;;;;;;;22.05;2.83;;;9.00;99.90;;;;;;5042452;28;20331;-72
2021/12/11 10:47:18;;;;;;;22.17;3.08;;;9.00;99.90;;;;;;5044189;28;20025;-74
2021/12/11 10:49:46;;;;;;;20.00;3.08;;;9.10;99.90;;;;;;5043023;28;20099;-72
2021/12/11 10:52:17;;;;;;;19.92;3.03;;;9.20;99.90;;;;;;5059083;28;20029;-71
2021/12/11 10:54:45;;;;;;;19.00;2.75;;;9.20;99.90;;;;;;5042307;28;20032;-73
2021/12/11 10:57:11;;;;;;;17.33;3.50;;;9.30;99.90;;;;;;5044107;28;20045;-72
2021/12/11 10:59:41;;;;;;;15.30;2.53;;;9.40;99.90;;;;;;5043581;28;20084;-75
2021/12/11 11:02:14;;;;;;;14.65;2.50;;;9.40;99.90;;;;;;5042436;28;20100;-73
2021/12/11 11:04:44;;;;;;;19.92;3.05;;;9.20;99.90;;;;;;5042359;28;20021;-73
2021/12/11 11:07:10;;;;;;;19.58;3.03;;;9.20;99.90;;;;;;5042994;28;20021;-73
2021/12/11 11:09:37;;;;;;;13.68;2.70;;;9.20;99.90;;;;;;5039744;28;20336;-72
2021/12/11 11:12:06;;;;;;;20.02;2.83;;;9.20;99.90;;;;;;5068792;28;20029;-73
2021/12/11 11:14:32;;;;;;;17.88;2.67;;;9.20;99.90;;;;;;5063055;28;20312;-74
2021/12/11 11:17:03;;;;;;;15.73;2.85;;;9.30;99.90;;;;;;5063918;28;20065;-75
2021/12/11 11:19:30;;;;;;;16.20;2.58;;;9.30;99.90;;;;;;5062073;28;20021;-73
2021/12/11 11:22:00;;;;;;;20.77;3.60;;;9.40;99.90;;;;;;5062350;28;20087;-73
2021/12/11 11:24:30;;;;;;;14.75;2.22;;;9.50;99.90;;;;;;5061632;28;20100;-74
2021/12/11 11:26:56;;;;;;;18.88;2.88;;;9.50;99.90;;;;;;5062517;28;20088;-72
2021/12/11 11:29:24;;;;;;;6.55;1.90;;;9.70;99.90;;;;;;5045678;28;20020;-73
2021/12/11 11:31:54;;;;;;;16.35;2.90;;;9.80;99.90;;;;;;5062338;28;20029;-73
2021/12/11 11:34:22;;;;;;;13.65;2.67;;;9.90;99.80;;;;;;5061691;28;20025;-72
2021/12/11 11:36:49;;;;;;;15.30;2.17;;;9.90;99.70;;;;;;5063501;28;20093;-74
2021/12/11 11:39:17;;;;;;;17.25;2.58;;;10.00;99.70;;;;;;5061715;28;20060;-73
2021/12/11 11:41:52;;;;;;;21.13;2.70;;;9.90;99.70;;;;;;5062245;28;20032;-72
2021/12/11 11:44:21;;;;;;;12.65;2.40;;;9.90;99.70;;;;;;5062054;28;20021;-73
2021/12/11 11:46:47;;;;;;;20.48;2.45;;;10.00;99.80;;;;;;5062344;28;20264;-74
2021/12/11 11:49:17;;;;;;;19.88;2.92;;;10.00;99.90;;;;;;5062116;28;20024;-73
2021/12/11 11:51:48;;;;;;;20.00;2.45;;;10.00;99.90;;;;;;5062543;28;20040;-72
2021/12/11 11:54:15;;;;;;;;;;;10.10;99.90;;;;;;5062813;28;20041;-73
2021/12/11 11:56:46;;;;;;;21.38;2.90;;;10.20;99.60;;;;;;5045617;28;19904;-72
2021/12/11 11:59:12;;;;;;;15.93;3.00;;;10.10;99.80;;;;;;5045357;28;20066;-73
2021/12/11 12:01:46;;;;;;;14.45;2.38;;;10.10;99.90;;;;;;5061982;28;20055;-72
2021/12/11 12:04:15;;;;;;;18.98;2.75;;;10.00;99.90;;;;;;5061839;28;20024;-73
2021/12/11 12:06:47;;;;;;;21.15;2.90;;;10.00;99.90;;;;;;5063110;28;20078;-73
2021/12/11 12:09:13;;;;;;;15.95;2.45;;;10.10;99.90;;;;;;5061126;28;20314;-73
2021/12/11 12:11:40;;;;;;;16.50;2.15;;;10.00;99.90;;;;;;5062832;28;20025;-73
2021/12/11 12:14:11;;;;;;;9.70;2.13;;;9.90;99.90;;;;;;5062730;28;20303;-73
2021/12/11 12:16:40;;;;;;;14.33;2.23;;;9.90;99.90;;;;;;5062049;28;20264;-75
2021/12/11 12:19:06;;;;;;;17.35;3.08;;;9.90;99.90;;;;;;5061803;28;20228;-73
2021/12/11 12:21:33;;;;;;;13.57;2.28;;;9.90;99.90;;;;;;5065088;28;20024;-74
2021/12/11 12:23:59;;;;;;;14.82;2.10;;;9.90;99.90;;;;;;5064982;28;20030;-73
2021/12/11 12:26:28;;;;;;;15.60;2.42;;;10.00;99.90;;;;;;5048997;28;20032;-73
2021/12/11 12:28:55;;;;;;;16.92;2.67;;;9.90;99.90;;;;;;5066788;28;20017;-75
2021/12/11 12:31:26;;;;;;;13.57;2.80;;;9.90;99.90;;;;;;5065319;28;20259;-71
2021/12/11 12:33:51;;;;;;;16.35;2.33;;;10.00;99.90;;;;;;5066243;28;20243;-73
2021/12/11 12:36:18;;;;;;;18.98;2.92;;;10.10;99.90;;;;;;5066378;28;20070;-74
2021/12/11 12:38:48;;;;;;;15.32;2.25;;;10.20;99.90;;;;;;5064963;28;20051;-74
2021/12/11 12:41:33;;;;;;;15.57;3.15;;;10.30;99.90;;;;;;5066403;28;20260;-74
2021/12/11 12:44:20;;;;;;;19.40;2.38;;;10.40;99.90;;;;;;5065200;28;20027;-73
2021/12/11 12:47:08;;;;;;;14.05;2.10;;;10.50;99.90;;;;;;5065098;28;20032;-72
2021/12/11 12:49:38;;;;;;;13.40;2.78;;;10.40;99.90;;;;;;5065270;28;20262;-73
2021/12/11 12:52:09;;;;;;;12.30;2.05;;;10.40;99.90;;;;;;5048203;28;20021;-73
2021/12/11 12:54:35;;;;;;;9.85;1.95;;;10.50;99.90;;;;;;5064511;28;20283;-73
2021/12/11 12:57:13;;;;;;;11.15;2.10;;;10.50;99.90;;;;;;5066158;28;20032;-72
2021/12/11 12:59:46;;;;;;;12.05;2.17;;;10.50;99.90;;;;;;5048866;28;20311;-74
2021/12/11 13:02:17;;;;;;;8.00;1.80;;;10.40;99.90;;;;;;5064943;28;20040;-73
2021/12/11 13:04:49;;;;;;;10.23;1.75;;;10.30;99.90;;;;;;5064885;28;20028;-73
2021/12/11 13:07:16;;;;;;;12.60;1.48;;;10.30;99.90;;;;;;5065953;28;20017;-73
2021/12/11 13:09:48;;;;;;;6.85;1.52;;;10.40;99.90;;;;;;5065588;28;20100;-73